This is the latest recevied weather packets stored in our database for station/object SR5NLK-1. If no packets are shown the sender has not sent any weather packets the latest 10 day(s).
| Time | Temp. | Humidity | Pressure | Rain* | Wind** | Luminosity | Snow |
|---|---|---|---|---|---|---|---|
| 1787806800 | 17.78° C | 89% | 1037.1 hPa | 0 mm | - | - | - |
| 1787806517 | 11.11° C | 89% | 1072.1 hPa | 0 mm | - | - | - |
| 1787806500 | 17.22° C | 91% | 1036.5 hPa | 0 mm | - | - | - |
| 1787806238 | 16.67° C | 92% | 1070.4 hPa | 0 mm | - | - | - |
| 1787806200 | 16.67° C | 92% | 1070.4 hPa | 0 mm | - | - | - |
| 1787805959 | 16.11° C | 92% | 1094.4 hPa | 0 mm | - | - | - |
| 1787805900 | 15.56° C | 93% | 1078.4 hPa | 0 mm | - | - | - |
| 1787805755 | 10.56° C | 89% | 1075.2 hPa | 0 mm | - | - | - |
| 1787805600 | 14.44° C | 92% | 1027 hPa | 0 mm | - | - | - |
| 1787805423 | 10.56° C | 89% | 1045.9 hPa | 0 mm | - | - | - |
| 1787805366 | 13.89° C | 92% | 1088.6 hPa | 0 mm | - | - | - |
| 1787805300 | 13.89° C | 92% | 1088.6 hPa | 0 mm | - | - | - |
| 1787805017 | 10.56° C | 89% | 1079.2 hPa | 0 mm | - | - | - |
| 1787805000 | 12.22° C | 90% | 1037.1 hPa | 0 mm | - | - | - |
| 1787804700 | 11.67° C | 89% | 1097.2 hPa | 0 mm | - | - | - |
| 1787804542 | 10.56° C | 88% | 1037.3 hPa | 0 mm | - | - | - |
| 1787804503 | 10.56° C | 88% | 1037.3 hPa | 0 mm | - | - | - |
| 1787804400 | 11.11° C | 89% | 1072.1 hPa | 0 mm | - | - | - |
| 1787804100 | 11.11° C | 89% | 1087.8 hPa | 0 mm | - | - | - |
| 1787803979 | 11.11° C | 89% | 1075.2 hPa | 0 mm | - | - | - |
| 1787803800 | 10.56° C | 89% | 1075.2 hPa | 0 mm | - | - | - |
| 1787803717 | 10.56° C | 88% | 1055.9 hPa | 0 mm | - | - | - |
| 1787803500 | 10.56° C | 89% | 1045.9 hPa | 0 mm | - | - | - |
| 1787803256 | 10.56° C | 89% | 1079.2 hPa | 0 mm | - | - | - |
| 1787803200 | 10.56° C | 89% | 1079.2 hPa | 0 mm | - | - | - |
* Rain latest hour (hover to see other rain measurements)
** Current wind speed in m/s (hover to see current wind gust speed)